SVMISVBM

Guest
Details From SVMI - Caracas Simon Bolivar Intl
To SVBM - BARQUISIMETO INTL
Flight Number -
Tags generated
Created
Modified
Stats Distance 144 nm / 267 km
Max Altitude 10,000 ft / 3,048 m
Waypoints 3
Social Downloads 1
Likes 0
Share VATSIM

Download

Looking for another format? Having issues loading an existing format? Contact us
Advertisement - Login to hide

Notes

Basic altitude profile: - Ascent Rate: 1400ft/min - Ascent Speed: 250kts - Cruise Altitude: 10000ft - Cruise Speed: 280kts - Descent Rate: 1500ft/min - Descent Speed: 250kts Options: - Use NATs: yes - Use PACOTS: yes - Use low airways: yes - Use high airways: no

Route

SVMI KERON SVBM

ID Type Via Altitude Latitude Longitude Leg Dist Tot Dist Heading (true) Name
O SVMI APT - 0 ft / 0 m 10.60312˚ -66.99059˚ - 0 nm - Caracas Simon Bolivar Intl
KERON FIX - 10,000 ft / 3,048 m 10.25981˚ -68.59847˚ 97 nm 97 nm 258° / 258° -
O SVBM APT - 0 ft / 0 m 10.04235˚ -69.35886˚ 46 nm 143 nm 254° / 254° BARQUISIMETO INTL

Altitude Profile

Advertisement - Login to hide

SVMI

Details ICAO SVMI (CCS)
Name Caracas Simon Bolivar Intl
Region Venezuela
Timezone America/Caracas (UTC-4.0)
Stats Elevation 235 ft / 72 m (AMSL)
Location 10.603119° -66.990585°
Runways 2
Magnetic Variation 12.289° W

METAR

SVMI 171600Z 05005KT 9999 SCT016 29/22 Q1013 NOSIG

Decode

TAF

Not found

Departure Runways

ID Width Length Bearing (true) Bearing (mag) Surface Threshold Offset Overrun Length
09 145 ft / 44 m 9,825 ft / 2,995 m 75.92° 88.21° Asphalt 0 ft / 0 m 0 ft / 0 m
10 148 ft / 45 m 11,472 ft / 3,497 m 88.14° 100.43° Asphalt 0 ft / 0 m 200 ft / 61 m
27 145 ft / 44 m 9,825 ft / 2,995 m 255.92° 268.21° Asphalt 0 ft / 0 m 0 ft / 0 m
28 148 ft / 45 m 11,472 ft / 3,497 m 268.15° 280.44° Asphalt 0 ft / 0 m 200 ft / 61 m

SVBM

Details ICAO SVBM (BRM)
Name BARQUISIMETO INTL
Region Venezuela
Timezone America/Caracas (UTC-4.0)
Stats Elevation 2,042 ft / 622 m (AMSL)
Location 10.042348° -69.358860°
Runways 1
Magnetic Variation 10.917° W

METAR

SVBM 171514Z 11010KT 9999 BKN016 27/18 Q1018

Decode

TAF

Not found

Destination Runways

ID Width Length Bearing (true) Bearing (mag) Surface Threshold Offset Overrun Length
09 147 ft / 45 m 9,428 ft / 2,874 m 80.91° 91.83° Asphalt 0 ft / 0 m 0 ft / 0 m
27 147 ft / 45 m 9,428 ft / 2,874 m 260.91° 271.83° Asphalt 1,541 ft / 470 m 315 ft / 96 m

Popular Alternatives